CYQBCYBC

Guest
Details From CYQB - Quebec Jean Lesage Intl
To CYBC - BAIE COMEAU
Flight Number -
Tags decoded
Created
Modified
Stats Distance 190 nm / 352 km
Max Altitude 0 ft / 0 m
Waypoints 2
Social Downloads 0
Likes 0
Share VATSIM

Download

Looking for another format? Having issues loading an existing format? Contact us
Advertisement - Login to hide

Notes

Requested: CYQB CYBC

Route

CYQB CYBC

ID Type Via Altitude Latitude Longitude Leg Dist Tot Dist Heading (true) Name
O CYQB APT - 0 ft / 0 m 46.78946˚ -71.39276˚ - 0 nm - Quebec Jean Lesage Intl
O CYBC APT - 0 ft / 0 m 49.13227˚ -68.20721˚ 190 nm 190 nm 41° / 44° BAIE COMEAU

Altitude Profile

Advertisement - Login to hide

Weather


0- 5 10 15 20 25 30 35+ Temperature / ° C

Clouds and Precipitation
Forecast for 2017-12-17 18:00 UTC. Updated an hour ago

Ground ~20,000 ft ~40,000 ft Winds

CYQB

Details ICAO CYQB (YQB)
Name Quebec Jean Lesage Intl
Region Canada
Timezone America/Montreal (UTC-5.0)
Stats Elevation 244 ft / 74 m (AMSL)
Location 46.789458° -71.392764°
Runways 2
Magnetic Variation 15.836° W

METAR

CYQB 171600Z 24011KT 30SM FEW015 M16/M22 A3028 RMK CU1 CU TR SLP262

Decode

TAF

TAF CYQB 171138Z 1712/1812 26008KT P6SM FEW070 BECMG 1715/1717 23010KT BECMG 1722/1724 24005KT FM180800 VRB03KT P6SM OVC140 RMK NXT FCST BY 171800Z

Decode

Departure Runways

ID Width Length Bearing (true) Bearing (mag) Surface Threshold Offset Overrun Length
06 150 ft / 46 m 9,020 ft / 2,749 m 44.00° 59.84° Asphalt 0 ft / 0 m 0 ft / 0 m
12 150 ft / 46 m 5,678 ft / 1,731 m 97.58° 113.42° Asphalt 0 ft / 0 m 0 ft / 0 m
24 150 ft / 46 m 9,020 ft / 2,749 m 224.02° 239.86° Asphalt 0 ft / 0 m 0 ft / 0 m
30 150 ft / 46 m 5,678 ft / 1,731 m 277.60° 293.44° Asphalt 0 ft / 0 m 0 ft / 0 m

CYBC

Details ICAO CYBC (YBC)
Name BAIE COMEAU
Region Canada
Timezone America/Montreal (UTC-5.0)
Stats Elevation 71 ft / 22 m (AMSL)
Location 49.132270° -68.207207°
Runways 1
Magnetic Variation 17.847° W

METAR

CYBC 171600Z AUTO 32013G20KT 9SM SCT049 M13/M20 A3007 RMK SLP188

Decode

TAF

TAF CYBC 171338Z 1714/1802 29008KT P6SM FEW210 BECMG 1714/1716 28012G22KT RMK FCST BASED ON AUTO OBS. NXT FCST BY 172000Z

Decode

Destination Runways

ID Width Length Bearing (true) Bearing (mag) Surface Threshold Offset Overrun Length
10 150 ft / 46 m 5,984 ft / 1,824 m 80.50° 98.35° Asphalt 0 ft / 0 m 0 ft / 0 m
28 150 ft / 46 m 5,984 ft / 1,824 m 260.52° 278.37° Asphalt 0 ft / 0 m 0 ft / 0 m

Approach Navaids

Runway Type Ident Frequency Range Bearing (true) Bearing (mag) Slope Elevation
10 Localiser IBC 110.30 MHz 18 nm / 33 km 79.38° 97.22° - 66 ft / 20 m (AMSL)
10 Glidescope IBC 110.30 MHz 18 nm / 33 km 100.00° 117.85° 2.50° 69 ft / 21 m (AMSL)

Popular Alternatives